createdAt,value
2023-09-11T00:01:53.371Z,17.18
2023-09-11T00:04:22.643Z,17.01
2023-09-11T00:06:50.235Z,16.73
2023-09-11T00:09:17.745Z,16.77
2023-09-11T00:11:45.580Z,16.98
2023-09-11T00:14:13.898Z,17.02
2023-09-11T00:16:43.129Z,17.06
2023-09-11T00:19:13.384Z,17.06
2023-09-11T00:21:40.835Z,17.05
2023-09-11T00:24:08.366Z,17.04
2023-09-11T00:26:36.163Z,16.83
2023-09-11T00:29:03.941Z,17.01
2023-09-11T00:31:31.830Z,16.95
2023-09-11T00:34:00.152Z,16.85
2023-09-11T00:36:27.599Z,16.77
2023-09-11T00:38:55.264Z,16.77
2023-09-11T00:41:23.156Z,16.48
2023-09-11T00:43:50.842Z,16.66
2023-09-11T00:46:18.466Z,16.66
2023-09-11T00:48:46.309Z,16.64
2023-09-11T00:51:13.850Z,16.63
2023-09-11T00:53:41.402Z,16.43
2023-09-11T00:56:09.168Z,16.33
2023-09-11T00:58:37.170Z,16.52
2023-09-11T01:01:05.856Z,16.50
2023-09-11T01:03:33.766Z,16.35
2023-09-11T01:06:02.089Z,16.42
2023-09-11T01:08:29.728Z,16.36
2023-09-11T01:10:58.158Z,16.32
2023-09-11T01:13:25.702Z,16.36
2023-09-11T01:16:16.206Z,16.08
2023-09-11T01:19:06.957Z,16.35
2023-09-11T01:22:12.183Z,16.15
2023-09-11T01:24:48.899Z,16.39
2023-09-11T01:27:22.305Z,16.35
2023-09-11T01:29:52.792Z,15.97
2023-09-11T01:32:25.450Z,16.24
2023-09-11T01:34:53.499Z,16.08
2023-09-11T01:37:21.178Z,16.15
2023-09-11T01:39:49.702Z,16.12
2023-09-11T01:42:21.712Z,16.15
2023-09-11T01:44:51.417Z,16.19
2023-09-11T01:47:23.160Z,16.16
2023-09-11T01:49:52.063Z,15.84
2023-09-11T01:52:21.993Z,16.14
2023-09-11T01:54:50.388Z,16.15
2023-09-11T01:57:18.088Z,16.10
2023-09-11T01:59:45.873Z,16.06
2023-09-11T02:02:13.387Z,16.01
2023-09-11T02:04:41.068Z,16.01
2023-09-11T02:07:08.959Z,16.03
2023-09-11T02:09:36.472Z,16.01
2023-09-11T02:12:04.343Z,16.05
2023-09-11T02:14:31.836Z,15.77
2023-09-11T02:17:04.056Z,15.79
2023-09-11T02:19:33.068Z,15.95
2023-09-11T02:22:01.638Z,15.96
2023-09-11T02:24:29.102Z,15.88
2023-09-11T02:26:57.385Z,15.83
2023-09-11T02:29:25.213Z,15.86
2023-09-11T02:31:52.772Z,15.62
2023-09-11T02:34:20.307Z,15.83
2023-09-11T02:36:48.078Z,15.84
2023-09-11T02:39:15.572Z,15.83
2023-09-11T02:41:43.040Z,15.83
2023-09-11T02:44:10.900Z,15.82
2023-09-11T02:46:38.432Z,15.75
2023-09-11T02:49:05.945Z,15.78
2023-09-11T02:51:33.736Z,15.75
2023-09-11T02:54:01.545Z,15.74
2023-09-11T02:56:29.044Z,15.75
2023-09-11T02:58:57.372Z,15.71
2023-09-11T03:01:24.967Z,15.73
2023-09-11T03:03:52.566Z,15.74
2023-09-11T03:06:20.285Z,15.69
2023-09-11T03:08:47.808Z,15.64
2023-09-11T03:11:15.480Z,15.58
2023-09-11T03:13:43.468Z,15.52
2023-09-11T03:16:15.914Z,15.46
2023-09-11T03:18:45.426Z,15.40
2023-09-11T03:21:13.780Z,15.22
2023-09-11T03:23:41.484Z,15.12
2023-09-11T03:26:14.709Z,15.16
2023-09-11T03:28:46.456Z,15.15
2023-09-11T03:31:14.199Z,15.09
2023-09-11T03:33:41.787Z,15.17
2023-09-11T03:36:09.567Z,15.12
2023-09-11T03:38:37.356Z,15.07
2023-09-11T03:41:05.094Z,15.10
2023-09-11T03:43:32.568Z,14.69
2023-09-11T03:46:00.432Z,14.81
2023-09-11T03:48:28.090Z,14.78
2023-09-11T03:50:57.064Z,14.48
2023-09-11T03:53:25.057Z,14.58
2023-09-11T03:55:52.834Z,14.78
2023-09-11T03:58:20.376Z,14.83
2023-09-11T04:00:48.309Z,14.26
2023-09-11T04:03:16.266Z,14.81
2023-09-11T04:05:43.957Z,14.83
2023-09-11T04:08:11.396Z,14.69
2023-09-11T04:10:39.133Z,14.67
2023-09-11T04:13:06.628Z,14.71
2023-09-11T04:15:34.042Z,14.64
2023-09-11T04:18:01.949Z,14.75
2023-09-11T04:20:34.487Z,14.75
2023-09-11T04:23:03.880Z,14.86
2023-09-11T04:25:31.427Z,14.80
2023-09-11T04:27:59.004Z,14.75
2023-09-11T04:30:27.073Z,15.04
2023-09-11T04:32:55.053Z,14.99
2023-09-11T04:35:24.775Z,15.01
2023-09-11T04:37:53.807Z,15.04
2023-09-11T04:40:21.360Z,15.03
2023-09-11T04:42:48.955Z,14.97
2023-09-11T04:45:16.852Z,15.04
2023-09-11T04:47:44.305Z,15.07
2023-09-11T04:50:11.766Z,15.13
2023-09-11T04:52:39.523Z,15.13
2023-09-11T04:55:07.526Z,15.24
2023-09-11T04:57:35.118Z,15.35
2023-09-11T05:00:08.675Z,15.40
2023-09-11T05:02:37.026Z,15.43
2023-09-11T05:05:05.236Z,15.46
2023-09-11T05:07:33.717Z,15.29
2023-09-11T05:10:02.470Z,15.59
2023-09-11T05:12:30.418Z,15.68
2023-09-11T05:14:57.974Z,15.75
2023-09-11T05:17:25.614Z,15.80
2023-09-11T05:19:53.364Z,15.67
2023-09-11T05:22:20.917Z,16.00
2023-09-11T05:24:48.407Z,16.14
2023-09-11T05:27:17.921Z,16.00
2023-09-11T05:29:45.397Z,16.26
2023-09-11T05:32:12.954Z,16.34
2023-09-11T05:34:40.762Z,16.43
2023-09-11T05:37:08.615Z,16.56
2023-09-11T05:39:36.066Z,16.65
2023-09-11T05:42:04.125Z,16.34
2023-09-11T05:44:31.672Z,16.85
2023-09-11T05:47:00.116Z,16.99
2023-09-11T05:49:29.733Z,17.34
2023-09-11T05:51:58.788Z,18.00
2023-09-11T05:54:26.368Z,17.81
2023-09-11T05:56:54.427Z,17.86
2023-09-11T05:59:22.157Z,17.97
2023-09-11T06:01:51.027Z,18.28
2023-09-11T06:04:19.014Z,19.04
2023-09-11T06:06:46.551Z,19.11
2023-09-11T06:09:14.125Z,19.10
2023-09-11T06:11:42.119Z,19.27
2023-09-11T06:14:09.706Z,19.56
2023-09-11T06:16:37.240Z,19.84
2023-09-11T06:19:05.168Z,19.82
2023-09-11T06:21:33.083Z,19.87
2023-09-11T06:24:00.813Z,19.71
2023-09-11T06:26:28.702Z,20.23
2023-09-11T06:28:56.242Z,20.06
2023-09-11T06:31:24.209Z,20.55
2023-09-11T06:33:52.220Z,20.54
2023-09-11T06:36:19.757Z,20.64
2023-09-11T06:38:47.280Z,20.85
2023-09-11T06:41:15.172Z,21.15
2023-09-11T06:43:43.433Z,21.05
2023-09-11T06:46:10.927Z,21.25
2023-09-11T06:48:39.931Z,21.37
2023-09-11T06:51:08.007Z,21.51
2023-09-11T06:53:35.602Z,21.47
2023-09-11T06:56:06.629Z,21.58
2023-09-11T06:58:34.367Z,21.62
2023-09-11T07:01:03.665Z,21.65
2023-09-11T07:03:31.690Z,21.81
2023-09-11T07:05:59.487Z,21.93
2023-09-11T07:08:27.090Z,22.03
2023-09-11T07:10:56.758Z,22.15
2023-09-11T07:13:24.350Z,22.23
2023-09-11T07:15:59.864Z,22.46
2023-09-11T07:18:28.240Z,22.64
2023-09-11T07:20:56.088Z,22.86
2023-09-11T07:23:24.919Z,23.06
2023-09-11T07:26:03.177Z,23.19
2023-09-11T07:28:30.794Z,23.35
2023-09-11T07:30:58.855Z,23.47
2023-09-11T07:33:26.746Z,23.47
2023-09-11T07:35:54.344Z,23.81
2023-09-11T07:38:22.174Z,23.97
2023-09-11T07:40:49.628Z,24.11
2023-09-11T07:43:17.288Z,24.29
2023-09-11T07:45:46.259Z,24.41
2023-09-11T07:48:13.703Z,24.53
2023-09-11T07:50:41.267Z,24.51
2023-09-11T07:53:09.051Z,24.85
2023-09-11T07:55:38.411Z,25.02
2023-09-11T07:58:05.940Z,25.16
2023-09-11T08:00:33.689Z,25.11
2023-09-11T08:03:01.549Z,25.48
2023-09-11T08:05:29.165Z,25.61
2023-09-11T08:07:56.974Z,25.76
2023-09-11T08:10:24.755Z,25.95
2023-09-11T08:12:52.262Z,26.09
2023-09-11T08:15:19.990Z,26.16
2023-09-11T08:17:47.827Z,26.30
2023-09-11T08:20:15.697Z,26.44
2023-09-11T08:22:43.224Z,26.47
2023-09-11T08:25:14.034Z,26.54
2023-09-11T08:27:41.587Z,26.70
2023-09-11T08:30:09.372Z,26.82
2023-09-11T08:32:38.476Z,26.90
2023-09-11T08:35:06.278Z,27.09
2023-09-11T08:37:33.852Z,27.19
2023-09-11T08:40:01.773Z,27.30
2023-09-11T08:42:29.332Z,27.31
2023-09-11T08:44:56.920Z,27.53
2023-09-11T08:47:31.199Z,27.59
2023-09-11T08:50:06.090Z,27.69
2023-09-11T08:52:35.423Z,27.78
2023-09-11T08:55:08.654Z,27.89
2023-09-11T08:57:39.699Z,27.95
2023-09-11T09:00:13.788Z,27.89
2023-09-11T09:02:43.518Z,28.01
2023-09-11T09:05:12.043Z,28.09
2023-09-11T09:07:40.746Z,28.20
2023-09-11T09:10:09.277Z,28.33
2023-09-11T09:12:37.807Z,28.45
2023-09-11T09:15:06.005Z,28.46
2023-09-11T09:17:33.974Z,28.68
2023-09-11T09:20:02.024Z,28.81
2023-09-11T09:22:29.767Z,28.72
2023-09-11T09:24:57.546Z,28.76
2023-09-11T09:27:29.427Z,28.95
2023-09-11T09:29:57.377Z,28.94
2023-09-11T09:32:24.980Z,28.83
2023-09-11T09:34:55.989Z,29.03
2023-09-11T09:37:23.830Z,29.07
2023-09-11T09:39:52.131Z,29.29
2023-09-11T09:42:20.206Z,29.13
2023-09-11T09:44:56.333Z,29.00
2023-09-11T09:47:24.093Z,29.05
2023-09-11T09:49:55.756Z,29.24
2023-09-11T09:52:27.289Z,29.39
2023-09-11T09:55:03.859Z,29.57
2023-09-11T09:57:31.529Z,29.64
2023-09-11T10:00:01.728Z,29.50
2023-09-11T10:02:37.768Z,29.71
2023-09-11T10:05:10.241Z,29.85
2023-09-11T10:07:40.053Z,29.89
2023-09-11T10:10:30.673Z,29.89
2023-09-11T10:13:13.197Z,30.01
2023-09-11T10:15:42.870Z,30.31
2023-09-11T10:18:12.526Z,30.22
2023-09-11T10:20:40.736Z,30.32
2023-09-11T10:23:09.470Z,30.26
2023-09-11T10:25:46.707Z,30.43
2023-09-11T10:28:40.932Z,30.42
2023-09-11T10:31:49.317Z,30.57
2023-09-11T10:34:17.362Z,30.48
2023-09-11T10:36:51.040Z,30.60
2023-09-11T10:39:20.896Z,30.36
2023-09-11T10:41:48.739Z,29.79
2023-09-11T10:44:17.160Z,29.82
2023-09-11T10:46:52.731Z,30.43
2023-09-11T10:49:22.053Z,30.65
2023-09-11T10:51:51.014Z,30.74
2023-09-11T10:54:23.054Z,30.56
2023-09-11T10:56:52.545Z,30.98
2023-09-11T10:59:24.698Z,31.13
2023-09-11T11:01:53.610Z,31.06
2023-09-11T11:04:24.277Z,31.24
2023-09-11T11:06:59.161Z,31.15
2023-09-11T11:09:33.266Z,31.35
2023-09-11T11:12:08.665Z,31.22
2023-09-11T11:14:36.680Z,31.39
2023-09-11T11:17:11.576Z,31.16
2023-09-11T11:19:43.600Z,31.04
2023-09-11T11:22:30.438Z,31.11
2023-09-11T11:24:59.720Z,31.28
2023-09-11T11:27:27.597Z,31.03
2023-09-11T11:29:55.297Z,31.25
2023-09-11T11:32:23.866Z,31.06
2023-09-11T11:34:52.261Z,31.58
2023-09-11T11:37:22.663Z,31.60
2023-09-11T11:39:51.751Z,31.72
2023-09-11T11:42:20.865Z,31.76
2023-09-11T11:44:49.507Z,31.90
2023-09-11T11:47:17.426Z,32.05
2023-09-11T11:49:45.351Z,31.94
2023-09-11T11:52:12.888Z,31.87
2023-09-11T11:54:40.663Z,32.08
2023-09-11T11:57:08.161Z,32.15
2023-09-11T11:59:39.577Z,32.22
2023-09-11T12:02:20.566Z,32.41
2023-09-11T12:04:51.476Z,32.24
2023-09-11T12:07:19.226Z,32.21
2023-09-11T12:09:46.784Z,32.34
2023-09-11T12:12:15.232Z,32.37
2023-09-11T12:14:43.456Z,32.04
2023-09-11T12:17:12.075Z,32.50
2023-09-11T12:19:39.980Z,32.56
2023-09-11T12:22:07.977Z,31.80
2023-09-11T12:24:35.550Z,32.03
2023-09-11T12:27:06.378Z,32.30
2023-09-11T12:29:34.412Z,32.26
2023-09-11T12:32:02.294Z,32.63
2023-09-11T12:34:56.755Z,32.42
2023-09-11T12:37:24.250Z,32.28
2023-09-11T12:39:52.185Z,32.27
2023-09-11T12:42:19.952Z,32.34
2023-09-11T12:44:48.746Z,32.15
2023-09-11T12:47:16.706Z,32.27
2023-09-11T12:49:44.174Z,32.25
2023-09-11T12:52:12.836Z,32.17
2023-09-11T12:54:40.893Z,32.34
2023-09-11T12:57:09.173Z,32.11
2023-09-11T12:59:36.837Z,32.21
2023-09-11T13:02:06.013Z,32.22
2023-09-11T13:04:34.828Z,31.82
2023-09-11T13:07:02.795Z,31.87
2023-09-11T13:09:35.707Z,32.02
2023-09-11T13:12:04.796Z,31.88
2023-09-11T13:14:33.277Z,31.89
2023-09-11T13:17:01.071Z,31.74
2023-09-11T13:19:28.514Z,31.67
2023-09-11T13:21:56.408Z,31.38
2023-09-11T13:24:23.946Z,30.98
2023-09-11T13:26:51.795Z,31.22
2023-09-11T13:29:19.685Z,31.19
2023-09-11T13:31:47.108Z,31.26
2023-09-11T13:34:14.646Z,31.46
2023-09-11T13:36:42.802Z,31.57
2023-09-11T13:39:12.512Z,31.54
2023-09-11T13:41:40.057Z,31.63
2023-09-11T13:44:07.935Z,31.47
2023-09-11T13:46:35.541Z,31.26
2023-09-11T13:49:03.092Z,31.52
2023-09-11T13:51:30.989Z,31.60
2023-09-11T13:53:58.511Z,31.59
2023-09-11T13:56:26.072Z,31.57
2023-09-11T13:58:53.881Z,31.49
2023-09-11T14:01:21.721Z,31.17
2023-09-11T14:03:49.686Z,31.33
2023-09-11T14:06:17.303Z,31.19
2023-09-11T14:08:44.921Z,31.13
2023-09-11T14:11:13.236Z,30.97
2023-09-11T14:13:40.856Z,30.75
2023-09-11T14:16:08.393Z,30.64
2023-09-11T14:18:36.291Z,30.60
2023-09-11T14:21:04.211Z,30.46
2023-09-11T14:23:31.805Z,30.38
2023-09-11T14:25:59.885Z,30.43
2023-09-11T14:28:27.292Z,30.22
2023-09-11T14:30:54.902Z,30.35
2023-09-11T14:33:23.014Z,30.33
2023-09-11T14:35:50.585Z,30.19
2023-09-11T14:38:18.079Z,30.14
2023-09-11T14:40:47.177Z,30.09
2023-09-11T14:43:14.738Z,30.06
2023-09-11T14:45:42.274Z,30.00
2023-09-11T14:48:10.333Z,29.98
2023-09-11T14:50:37.929Z,29.96
2023-09-11T14:53:05.507Z,29.96
2023-09-11T14:55:33.284Z,29.78
2023-09-11T14:58:00.730Z,29.96
2023-09-11T15:00:28.264Z,29.96
2023-09-11T15:02:56.154Z,29.93
2023-09-11T15:05:23.994Z,29.91
2023-09-11T15:07:51.710Z,29.81
2023-09-11T15:10:19.534Z,29.86
2023-09-11T15:12:47.024Z,29.84
2023-09-11T15:15:14.728Z,29.84
2023-09-11T15:17:42.924Z,29.63
2023-09-11T15:20:11.164Z,29.59
2023-09-11T15:22:38.733Z,29.74
2023-09-11T15:25:06.979Z,29.49
2023-09-11T15:27:34.632Z,29.61
2023-09-11T15:30:02.189Z,29.56
2023-09-11T15:32:30.328Z,29.52
2023-09-11T15:34:57.973Z,29.49
2023-09-11T15:37:25.451Z,29.45
2023-09-11T15:39:53.297Z,29.21
2023-09-11T15:42:20.785Z,29.33
2023-09-11T15:44:48.414Z,29.12
2023-09-11T15:47:16.329Z,29.00
2023-09-11T15:49:43.810Z,29.13
2023-09-11T15:52:11.246Z,29.08
2023-09-11T15:54:38.989Z,29.04
2023-09-11T15:57:07.418Z,29.01
2023-09-11T15:59:35.329Z,28.96
2023-09-11T16:02:03.271Z,28.71
2023-09-11T16:04:31.105Z,28.83
2023-09-11T16:06:59.411Z,28.62
2023-09-11T16:09:28.693Z,28.67
2023-09-11T16:11:58.135Z,28.59
2023-09-11T16:14:25.662Z,28.50
2023-09-11T16:16:53.261Z,28.41
2023-09-11T16:19:23.147Z,28.31
2023-09-11T16:21:51.264Z,28.21
2023-09-11T16:24:18.909Z,28.10
2023-09-11T16:26:47.136Z,27.99
2023-09-11T16:29:15.100Z,27.87
2023-09-11T16:31:42.795Z,27.76
2023-09-11T16:34:11.868Z,27.68
2023-09-11T16:36:39.946Z,27.59
2023-09-11T16:39:07.480Z,27.50
2023-09-11T16:41:35.745Z,27.42
2023-09-11T16:44:03.286Z,27.31
2023-09-11T16:46:30.810Z,27.21
2023-09-11T16:48:58.603Z,27.14
2023-09-11T16:51:26.180Z,27.03
2023-09-11T16:53:53.992Z,26.92
2023-09-11T16:56:21.883Z,26.82
2023-09-11T16:58:49.506Z,26.72
2023-09-11T17:01:17.326Z,26.61
2023-09-11T17:03:45.447Z,26.33
2023-09-11T17:06:13.373Z,26.45
2023-09-11T17:08:41.204Z,26.36
2023-09-11T17:11:09.153Z,26.26
2023-09-11T17:13:37.619Z,26.17
2023-09-11T17:16:05.184Z,26.09
2023-09-11T17:18:33.038Z,26.01
2023-09-11T17:21:05.496Z,25.92
2023-09-11T17:23:33.378Z,25.83
2023-09-11T17:26:00.832Z,25.71
2023-09-11T17:28:28.312Z,25.62
2023-09-11T17:30:56.117Z,25.54
2023-09-11T17:33:23.737Z,25.25
2023-09-11T17:35:51.305Z,25.39
2023-09-11T17:38:19.554Z,25.30
2023-09-11T17:40:47.008Z,25.22
2023-09-11T17:43:14.483Z,25.15
2023-09-11T17:45:42.427Z,24.87
2023-09-11T17:48:09.967Z,24.99
2023-09-11T17:50:37.535Z,24.92
2023-09-11T17:53:05.387Z,24.58
2023-09-11T17:55:32.884Z,24.69
2023-09-11T17:58:00.379Z,24.53
2023-09-11T18:00:28.728Z,24.67
2023-09-11T18:02:56.620Z,24.59
2023-09-11T18:05:24.068Z,24.60
2023-09-11T18:07:51.653Z,24.56
2023-09-11T18:10:19.488Z,24.43
2023-09-11T18:12:46.954Z,24.47
2023-09-11T18:15:14.761Z,24.40
2023-09-11T18:17:43.804Z,24.34
2023-09-11T18:20:11.812Z,24.27
2023-09-11T18:22:39.298Z,24.12
2023-09-11T18:25:07.220Z,24.15
2023-09-11T18:27:37.067Z,24.09
2023-09-11T18:30:05.694Z,24.05
2023-09-11T18:32:34.042Z,23.99
2023-09-11T18:35:01.579Z,23.93
2023-09-11T18:37:29.272Z,23.89
2023-09-11T18:39:57.217Z,23.86
2023-09-11T18:42:25.028Z,23.83
2023-09-11T18:44:52.631Z,23.81
2023-09-11T18:47:20.579Z,23.55
2023-09-11T18:49:48.102Z,23.74
2023-09-11T18:52:15.559Z,23.69
2023-09-11T18:54:43.726Z,23.67
2023-09-11T18:57:11.286Z,23.59
2023-09-11T18:59:38.861Z,23.55
2023-09-11T19:02:07.558Z,23.27
2023-09-11T19:04:35.186Z,23.44
2023-09-11T19:07:02.832Z,23.40
2023-09-11T19:09:31.383Z,23.27
2023-09-11T19:11:59.000Z,23.04
2023-09-11T19:14:27.115Z,23.23
2023-09-11T19:16:54.968Z,23.16
2023-09-11T19:19:23.064Z,23.09
2023-09-11T19:21:50.854Z,23.04
2023-09-11T19:24:18.852Z,22.98
2023-09-11T19:26:46.558Z,22.93
2023-09-11T19:29:14.188Z,22.89
2023-09-11T19:31:41.969Z,22.83
2023-09-11T19:34:10.127Z,22.56
2023-09-11T19:36:37.994Z,22.73
2023-09-11T19:39:06.181Z,22.67
2023-09-11T19:41:33.892Z,22.62
2023-09-11T19:44:01.350Z,22.60
2023-09-11T19:46:29.120Z,22.46
2023-09-11T19:48:56.923Z,22.49
2023-09-11T19:51:24.418Z,22.45
2023-09-11T19:53:52.234Z,22.41
2023-09-11T19:56:20.944Z,22.37
2023-09-11T19:58:48.452Z,22.32
2023-09-11T20:01:16.291Z,22.27
2023-09-11T20:03:44.378Z,22.24
2023-09-11T20:06:12.108Z,22.18
2023-09-11T20:08:39.760Z,22.15
2023-09-11T20:11:07.740Z,21.90
2023-09-11T20:13:35.320Z,21.87
2023-09-11T20:16:02.994Z,22.08
2023-09-11T20:18:30.824Z,22.05
2023-09-11T20:20:58.423Z,22.02
2023-09-11T20:23:25.936Z,21.99
2023-09-11T20:25:53.729Z,21.94
2023-09-11T20:28:21.260Z,21.89
2023-09-11T20:30:48.721Z,21.84
2023-09-11T20:33:16.522Z,21.77
2023-09-11T20:35:44.365Z,21.50
2023-09-11T20:38:12.319Z,21.65
2023-09-11T20:40:40.115Z,21.54
2023-09-11T20:43:07.591Z,21.46
2023-09-11T20:45:35.065Z,21.39
2023-09-11T20:48:03.135Z,21.32
2023-09-11T20:50:30.672Z,21.26
2023-09-11T20:52:58.183Z,21.20
2023-09-11T20:55:26.004Z,20.93
2023-09-11T20:57:53.879Z,21.07
2023-09-11T21:00:21.355Z,21.03
2023-09-11T21:02:49.791Z,21.01
2023-09-11T21:05:17.425Z,20.98
2023-09-11T21:07:45.967Z,20.92
2023-09-11T21:10:14.740Z,20.91
2023-09-11T21:12:56.547Z,20.66
2023-09-11T21:15:26.020Z,20.84
2023-09-11T21:17:54.488Z,20.76
2023-09-11T21:20:22.059Z,20.72
2023-09-11T21:22:50.025Z,20.69
2023-09-11T21:25:17.743Z,20.63
2023-09-11T21:27:45.320Z,20.60
2023-09-11T21:30:13.337Z,20.59
2023-09-11T21:32:40.950Z,20.29
2023-09-11T21:35:08.664Z,20.34
2023-09-11T21:37:36.394Z,20.20
2023-09-11T21:40:04.984Z,20.07
2023-09-11T21:42:33.088Z,19.73
2023-09-11T21:45:00.978Z,19.68
2023-09-11T21:47:28.501Z,19.63
2023-09-11T21:49:55.916Z,19.57
2023-09-11T21:52:24.054Z,19.52
2023-09-11T21:54:51.549Z,19.45
2023-09-11T21:57:19.210Z,19.39
2023-09-11T21:59:48.196Z,19.33
2023-09-11T22:02:16.621Z,19.22
2023-09-11T22:04:49.364Z,19.20
2023-09-11T22:07:17.810Z,19.17
2023-09-11T22:09:45.566Z,19.08
2023-09-11T22:12:13.445Z,18.92
2023-09-11T22:14:41.064Z,18.93
2023-09-11T22:17:11.183Z,18.84
2023-09-11T22:19:39.812Z,18.85
2023-09-11T22:22:07.305Z,18.67
2023-09-11T22:24:35.099Z,18.78
2023-09-11T22:27:13.405Z,18.79
2023-09-11T22:29:50.524Z,18.81
2023-09-11T22:32:18.141Z,18.78
2023-09-11T22:34:45.891Z,18.46
2023-09-11T22:37:13.859Z,18.68
2023-09-11T22:39:41.334Z,18.69
2023-09-11T22:42:08.821Z,18.69
2023-09-11T22:44:36.724Z,18.65
2023-09-11T22:47:05.833Z,18.60
2023-09-11T22:49:33.420Z,18.53
2023-09-11T22:52:01.258Z,18.49
2023-09-11T22:54:29.275Z,18.48
2023-09-11T22:56:57.137Z,18.17
2023-09-11T22:59:24.966Z,18.37
2023-09-11T23:01:52.498Z,18.33
2023-09-11T23:04:20.142Z,18.29
2023-09-11T23:06:48.098Z,18.28
2023-09-11T23:09:15.612Z,18.26
2023-09-11T23:11:43.131Z,18.26
2023-09-11T23:14:11.112Z,18.27
2023-09-11T23:16:38.576Z,18.32
2023-09-11T23:19:06.175Z,18.33
2023-09-11T23:21:33.970Z,18.10
2023-09-11T23:24:12.401Z,18.36
2023-09-11T23:26:43.733Z,18.38
2023-09-11T23:29:11.855Z,18.34
2023-09-11T23:31:39.348Z,18.37
2023-09-11T23:34:07.166Z,18.30
2023-09-11T23:36:34.777Z,18.15
2023-09-11T23:39:04.773Z,18.42
2023-09-11T23:41:32.923Z,18.46
2023-09-11T23:44:00.948Z,18.49
2023-09-11T23:46:30.290Z,18.49
2023-09-11T23:48:58.315Z,18.49
2023-09-11T23:51:26.024Z,18.51
2023-09-11T23:53:53.980Z,18.50
2023-09-11T23:56:21.730Z,18.51
2023-09-11T23:58:49.108Z,18.49
